createdAt,value
2019-01-03T00:01:42.277Z,102631.00
2019-01-03T00:04:30.660Z,102623.00
2019-01-03T00:07:23.328Z,102611.00
2019-01-03T00:10:25.361Z,102615.00
2019-01-03T00:13:14.636Z,102613.00
2019-01-03T00:16:07.901Z,102617.00
2019-01-03T00:19:09.986Z,102619.00
2019-01-03T00:22:06.712Z,102628.00
2019-01-03T00:24:53.797Z,102621.00
2019-01-03T00:27:42.713Z,102616.00
2019-01-03T00:30:41.895Z,102622.00
2019-01-03T00:33:37.171Z,102619.00
2019-01-03T00:36:25.471Z,102620.00
2019-01-03T00:39:21.656Z,102625.00
2019-01-03T00:42:13.197Z,102628.00
2019-01-03T00:45:01.831Z,102615.00
2019-01-03T00:47:57.627Z,102618.00
2019-01-03T00:50:40.682Z,102611.00
2019-01-03T00:53:31.286Z,102621.00
2019-01-03T00:56:30.039Z,102633.00
2019-01-03T00:59:25.775Z,102629.00
2019-01-03T01:02:14.275Z,102622.00
2019-01-03T01:05:03.203Z,102615.00
2019-01-03T01:07:46.111Z,102616.00
2019-01-03T01:10:35.997Z,102610.00
2019-01-03T01:13:34.853Z,102616.00
2019-01-03T01:16:27.612Z,102618.00
2019-01-03T01:19:20.229Z,102624.00
2019-01-03T01:22:10.668Z,102626.00
2019-01-03T01:25:12.499Z,102621.00
2019-01-03T01:28:00.897Z,102621.00
2019-01-03T01:30:59.999Z,102616.00
2019-01-03T01:33:49.941Z,102621.00
2019-01-03T01:36:51.757Z,102630.00
2019-01-03T01:39:40.294Z,102642.00
2019-01-03T01:42:28.852Z,102650.00
2019-01-03T01:45:18.771Z,102647.00
2019-01-03T01:48:08.222Z,102645.00
2019-01-03T01:51:07.075Z,102638.00
2019-01-03T01:53:55.689Z,102633.00
2019-01-03T01:56:42.779Z,102630.00
2019-01-03T01:59:34.727Z,102626.00
2019-01-03T02:02:29.193Z,102627.00
2019-01-03T02:05:17.885Z,102638.00
2019-01-03T02:08:06.166Z,102642.00
2019-01-03T02:10:55.263Z,102643.00
2019-01-03T02:13:45.227Z,102639.00
2019-01-03T02:16:33.717Z,102627.00
2019-01-03T02:19:21.996Z,102635.00
2019-01-03T02:22:10.745Z,102629.00
2019-01-03T02:24:59.455Z,102633.00
2019-01-03T02:27:59.422Z,102634.00
2019-01-03T02:30:52.874Z,102629.00
2019-01-03T02:33:41.568Z,102626.00
2019-01-03T02:36:28.391Z,102625.00
2019-01-03T02:39:28.053Z,102626.00
2019-01-03T02:42:16.255Z,102622.00
2019-01-03T02:45:18.149Z,102622.00
2019-01-03T02:48:16.946Z,102620.00
2019-01-03T02:51:09.651Z,102618.00
2019-01-03T02:53:58.204Z,102633.00
2019-01-03T02:56:42.178Z,102619.00
2019-01-03T02:59:30.787Z,102625.00
2019-01-03T03:02:14.429Z,102616.00
2019-01-03T03:05:13.172Z,102612.00
2019-01-03T03:07:51.763Z,102616.00
2019-01-03T03:10:44.997Z,102618.00
2019-01-03T03:13:33.373Z,102609.00
2019-01-03T03:16:24.729Z,102603.00
2019-01-03T03:19:09.725Z,102601.00
2019-01-03T03:22:00.758Z,102605.00
2019-01-03T03:24:50.677Z,102607.00
2019-01-03T03:27:40.730Z,102606.00
2019-01-03T03:30:29.491Z,102599.00
2019-01-03T03:33:32.407Z,102595.00
2019-01-03T03:36:22.296Z,102597.00
2019-01-03T03:39:10.661Z,102593.00
2019-01-03T03:41:59.588Z,102595.00
2019-01-03T03:44:41.205Z,102600.00
2019-01-03T03:47:18.911Z,102607.00
2019-01-03T03:50:07.281Z,102599.00
2019-01-03T03:52:57.150Z,102601.00
2019-01-03T03:55:45.752Z,102614.00
2019-01-03T03:58:30.891Z,102607.00
2019-01-03T04:01:19.112Z,102603.00
2019-01-03T04:04:05.760Z,102602.00
2019-01-03T04:06:54.111Z,102603.00
2019-01-03T04:09:53.000Z,102610.00
2019-01-03T04:12:45.764Z,102605.00
2019-01-03T04:15:43.940Z,102610.00
2019-01-03T04:18:37.734Z,102609.00
2019-01-03T04:21:26.239Z,102602.00
2019-01-03T04:24:31.286Z,102603.00
2019-01-03T04:27:26.967Z,102608.00
2019-01-03T04:30:23.848Z,102613.00
2019-01-03T04:33:12.161Z,102601.00
2019-01-03T04:36:05.191Z,102594.00
2019-01-03T04:38:47.510Z,102603.00
2019-01-03T04:41:29.095Z,102596.00
2019-01-03T04:44:14.059Z,102609.00
2019-01-03T04:47:16.453Z,102601.00
2019-01-03T04:50:15.536Z,102606.00
2019-01-03T04:53:04.928Z,102603.00
2019-01-03T04:55:53.086Z,102598.00
2019-01-03T04:58:36.935Z,102600.00
2019-01-03T05:02:01.478Z,102599.00
2019-01-03T05:04:57.640Z,102595.00
2019-01-03T05:07:47.288Z,102583.00
2019-01-03T05:10:30.422Z,102586.00
2019-01-03T05:13:20.301Z,102583.00
2019-01-03T05:16:12.974Z,102587.00
2019-01-03T05:19:01.458Z,102592.00
2019-01-03T05:22:01.934Z,102580.00
2019-01-03T05:24:50.393Z,102581.00
2019-01-03T05:27:42.884Z,102580.00
2019-01-03T05:30:26.786Z,102583.00
2019-01-03T05:33:18.480Z,102579.00
2019-01-03T05:36:11.529Z,102581.00
2019-01-03T05:38:59.978Z,102570.00
2019-01-03T05:41:50.017Z,102570.00
2019-01-03T05:44:45.661Z,102565.00
2019-01-03T05:47:40.674Z,102587.00
2019-01-03T05:50:29.750Z,102578.00
2019-01-03T05:53:18.272Z,102587.00
2019-01-03T05:56:06.865Z,102585.00
2019-01-03T05:58:55.551Z,102580.00
2019-01-03T06:01:53.073Z,102592.00
2019-01-03T06:04:44.675Z,102593.00
2019-01-03T06:07:33.027Z,102595.00
2019-01-03T06:10:21.795Z,102592.00
2019-01-03T06:13:25.154Z,102603.00
2019-01-03T06:16:21.782Z,102601.00
2019-01-03T06:19:10.319Z,102592.00
2019-01-03T06:22:15.155Z,102604.00
2019-01-03T06:25:11.244Z,102603.00
2019-01-03T06:27:59.880Z,102602.00
2019-01-03T06:30:48.618Z,102600.00
2019-01-03T06:33:45.205Z,102611.00
2019-01-03T06:36:36.341Z,102608.00
2019-01-03T06:39:29.705Z,102607.00
2019-01-03T06:42:18.331Z,102606.00
2019-01-03T06:45:06.804Z,102618.00
2019-01-03T06:48:09.569Z,102624.00
2019-01-03T06:51:02.823Z,102635.00
2019-01-03T06:54:10.881Z,102632.00
2019-01-03T06:57:12.575Z,102629.00
2019-01-03T07:00:01.410Z,102626.00
2019-01-03T07:02:57.353Z,102632.00
2019-01-03T07:05:45.823Z,102651.00
2019-01-03T07:08:48.149Z,102664.00
2019-01-03T07:11:36.672Z,102652.00
2019-01-03T07:14:26.935Z,102654.00
2019-01-03T07:17:15.511Z,102648.00
2019-01-03T07:20:08.207Z,102661.00
2019-01-03T07:22:56.959Z,102652.00
2019-01-03T07:25:45.891Z,102652.00
2019-01-03T07:28:41.157Z,102655.00
2019-01-03T07:31:29.491Z,102657.00
2019-01-03T07:34:18.026Z,102674.00
2019-01-03T07:37:06.890Z,102672.00
2019-01-03T07:39:52.854Z,102674.00
2019-01-03T07:42:57.747Z,102675.00
2019-01-03T07:45:59.919Z,102676.00
2019-01-03T07:48:48.270Z,102671.00
2019-01-03T07:51:39.968Z,102668.00
2019-01-03T07:54:32.192Z,102662.00
2019-01-03T07:57:37.052Z,102667.00
2019-01-03T08:03:54.313Z,102661.00
2019-01-03T08:06:56.146Z,102659.00
2019-01-03T08:09:49.776Z,102666.00
2019-01-03T08:12:43.678Z,102658.00
2019-01-03T08:15:51.611Z,102651.00
2019-01-03T08:18:48.779Z,102651.00
2019-01-03T08:21:39.175Z,102658.00
2019-01-03T08:24:57.560Z,102664.00
2019-01-03T08:27:56.206Z,102667.00
2019-01-03T08:30:48.541Z,102670.00
2019-01-03T08:33:44.187Z,102674.00
2019-01-03T08:40:23.738Z,102693.00
2019-01-03T08:43:27.167Z,102698.00
2019-01-03T08:46:32.814Z,102703.00
2019-01-03T08:49:23.178Z,102709.00
2019-01-03T08:52:12.530Z,102699.00
2019-01-03T08:58:45.919Z,102694.00
2019-01-03T09:01:36.515Z,102699.00
2019-01-03T09:08:16.176Z,102688.00
2019-01-03T09:12:10.791Z,102702.00
2019-01-03T09:15:02.517Z,102703.00
2019-01-03T09:18:09.586Z,102714.00
2019-01-03T09:21:30.520Z,102717.00
2019-01-03T09:24:41.320Z,102720.00
2019-01-03T09:27:33.380Z,102714.00
2019-01-03T09:30:26.688Z,102710.00
2019-01-03T09:34:04.310Z,102710.00
2019-01-03T09:36:57.725Z,102720.00
2019-01-03T09:39:50.688Z,102723.00
2019-01-03T09:42:49.831Z,102730.00
2019-01-03T09:45:24.128Z,102717.00
2019-01-03T09:47:55.222Z,102724.00
2019-01-03T09:50:32.234Z,102724.00
2019-01-03T09:53:04.748Z,102719.00
2019-01-03T09:55:46.940Z,102716.00
2019-01-03T09:58:22.939Z,102717.00
2019-01-03T10:00:56.649Z,102722.00
2019-01-03T10:03:33.221Z,102717.00
2019-01-03T10:06:08.572Z,102710.00
2019-01-03T10:08:46.743Z,102716.00
2019-01-03T10:11:18.129Z,102710.00
2019-01-03T10:13:49.527Z,102699.00
2019-01-03T10:16:20.802Z,102686.00
2019-01-03T10:19:00.986Z,102691.00
2019-01-03T10:21:43.990Z,102693.00
2019-01-03T10:25:03.541Z,102689.00
2019-01-03T10:30:35.641Z,102689.00
2019-01-03T10:33:25.596Z,102700.00
2019-01-03T10:35:56.985Z,102695.00
2019-01-03T10:38:28.341Z,102703.00
2019-01-03T10:40:59.235Z,102703.00
2019-01-03T10:43:30.172Z,102707.00
2019-01-03T10:46:01.080Z,102705.00
2019-01-03T10:49:04.763Z,102706.00
2019-01-03T10:51:37.668Z,102690.00
2019-01-03T10:54:35.131Z,102695.00
2019-01-03T10:57:09.079Z,102694.00
2019-01-03T10:59:40.021Z,102683.00
2019-01-03T11:02:11.083Z,102692.00
2019-01-03T11:04:42.190Z,102691.00
2019-01-03T11:07:13.325Z,102694.00
2019-01-03T11:09:45.687Z,102705.00
2019-01-03T11:12:17.722Z,102717.00
2019-01-03T11:14:48.890Z,102716.00
2019-01-03T11:17:19.783Z,102711.00
2019-01-03T11:19:51.799Z,102715.00
2019-01-03T11:22:22.830Z,102709.00
2019-01-03T11:24:53.820Z,102713.00
2019-01-03T11:27:25.290Z,102713.00
2019-01-03T11:29:59.275Z,102709.00
2019-01-03T11:32:31.299Z,102714.00
2019-01-03T11:35:02.457Z,102716.00
2019-01-03T11:37:33.482Z,102721.00
2019-01-03T11:40:05.433Z,102712.00
2019-01-03T11:42:36.570Z,102702.00
2019-01-03T11:45:07.936Z,102692.00
2019-01-03T11:47:38.953Z,102706.00
2019-01-03T11:50:10.883Z,102699.00
2019-01-03T11:52:41.746Z,102693.00
2019-01-03T11:55:12.809Z,102698.00
2019-01-03T11:57:43.723Z,102691.00
2019-01-03T12:00:14.699Z,102692.00
2019-01-03T12:02:45.565Z,102697.00
2019-01-03T12:05:16.431Z,102694.00
2019-01-03T12:07:47.537Z,102693.00
2019-01-03T12:10:18.546Z,102689.00
2019-01-03T12:12:50.329Z,102685.00
2019-01-03T12:15:23.081Z,102690.00
2019-01-03T12:17:54.038Z,102682.00
2019-01-03T12:20:24.924Z,102685.00
2019-01-03T12:22:56.153Z,102685.00
2019-01-03T12:25:27.078Z,102688.00
2019-01-03T12:28:00.363Z,102687.00
2019-01-03T12:30:31.573Z,102679.00
2019-01-03T12:33:02.623Z,102678.00
2019-01-03T12:35:33.622Z,102683.00
2019-01-03T12:38:04.540Z,102675.00
2019-01-03T12:40:38.285Z,102678.00
2019-01-03T12:43:09.386Z,102678.00
2019-01-03T12:45:40.587Z,102673.00
2019-01-03T12:48:14.154Z,102667.00
2019-01-03T12:50:46.503Z,102669.00
2019-01-03T12:53:17.489Z,102671.00
2019-01-03T12:55:49.413Z,102675.00
2019-01-03T12:58:20.320Z,102671.00
2019-01-03T13:00:51.229Z,102670.00
2019-01-03T13:03:22.244Z,102671.00
2019-01-03T13:05:53.255Z,102678.00
2019-01-03T13:08:24.181Z,102667.00
2019-01-03T13:10:55.365Z,102665.00
2019-01-03T13:13:26.356Z,102668.00
2019-01-03T13:16:00.196Z,102672.00
2019-01-03T13:21:37.717Z,102658.00
2019-01-03T13:24:46.324Z,102659.00
2019-01-03T13:27:47.696Z,102656.00
2019-01-03T13:30:51.919Z,102667.00
2019-01-03T13:33:47.150Z,102666.00
2019-01-03T13:36:20.850Z,102667.00
2019-01-03T13:38:52.450Z,102665.00
2019-01-03T13:41:23.683Z,102660.00
2019-01-03T13:43:54.816Z,102666.00
2019-01-03T13:46:26.589Z,102671.00
2019-01-03T13:48:58.182Z,102661.00
2019-01-03T13:51:29.600Z,102666.00
2019-01-03T13:54:02.098Z,102669.00
2019-01-03T13:56:39.334Z,102666.00
2019-01-03T13:59:14.076Z,102663.00
2019-01-03T14:01:45.990Z,102661.00
2019-01-03T14:04:18.845Z,102666.00
2019-01-03T14:06:50.573Z,102664.00
2019-01-03T14:09:22.231Z,102671.00
2019-01-03T14:11:53.633Z,102675.00
2019-01-03T14:14:25.162Z,102675.00
2019-01-03T14:17:00.116Z,102689.00
2019-01-03T14:19:30.448Z,102691.00
2019-01-03T14:22:02.232Z,102686.00
2019-01-03T14:24:33.402Z,102686.00
2019-01-03T14:27:10.750Z,102696.00
2019-01-03T14:29:41.812Z,102690.00
2019-01-03T14:32:12.864Z,102693.00
2019-01-03T14:34:44.768Z,102704.00
2019-01-03T14:37:17.066Z,102698.00
2019-01-03T14:39:48.251Z,102701.00
2019-01-03T14:42:20.340Z,102708.00
2019-01-03T14:44:51.596Z,102704.00
2019-01-03T14:47:23.123Z,102706.00
2019-01-03T14:49:54.595Z,102710.00
2019-01-03T14:52:25.890Z,102710.00
2019-01-03T14:54:57.757Z,102711.00
2019-01-03T14:57:29.185Z,102709.00
2019-01-03T15:00:01.258Z,102713.00
2019-01-03T15:02:33.176Z,102701.00
2019-01-03T15:05:05.298Z,102709.00
2019-01-03T15:07:38.300Z,102717.00
2019-01-03T15:10:10.354Z,102721.00
2019-01-03T15:12:42.423Z,102733.00
2019-01-03T15:15:14.382Z,102722.00
2019-01-03T15:17:48.946Z,102732.00
2019-01-03T15:20:21.989Z,102725.00
2019-01-03T15:22:53.442Z,102731.00
2019-01-03T15:25:51.431Z,102739.00
2019-01-03T15:28:35.614Z,102734.00
2019-01-03T15:31:11.454Z,102733.00
2019-01-03T15:33:43.124Z,102737.00
2019-01-03T15:36:17.467Z,102730.00
2019-01-03T15:38:51.746Z,102742.00
2019-01-03T15:41:38.433Z,102735.00
2019-01-03T15:44:21.284Z,102748.00
2019-01-03T15:48:10.515Z,102747.00
2019-01-03T15:50:53.896Z,102754.00
2019-01-03T15:53:26.064Z,102755.00
2019-01-03T15:59:41.692Z,102757.00
2019-01-03T16:02:14.003Z,102766.00
2019-01-03T16:04:45.405Z,102760.00
2019-01-03T16:07:16.692Z,102761.00
2019-01-03T16:09:47.969Z,102762.00
2019-01-03T16:12:19.384Z,102763.00
2019-01-03T16:14:51.829Z,102769.00
2019-01-03T16:17:23.077Z,102773.00
2019-01-03T16:19:54.215Z,102774.00
2019-01-03T16:22:25.867Z,102775.00
2019-01-03T16:24:56.899Z,102784.00
2019-01-03T16:27:27.844Z,102781.00
2019-01-03T16:29:58.774Z,102781.00
2019-01-03T16:32:31.437Z,102788.00
2019-01-03T16:35:04.172Z,102796.00
2019-01-03T16:37:35.264Z,102788.00
2019-01-03T16:40:08.022Z,102791.00
2019-01-03T16:42:44.383Z,102784.00
2019-01-03T16:45:15.622Z,102775.00
2019-01-03T16:47:46.752Z,102770.00
2019-01-03T16:50:18.908Z,102773.00
2019-01-03T16:52:53.881Z,102766.00
2019-01-03T16:55:25.026Z,102754.00
2019-01-03T16:57:56.254Z,102759.00
2019-01-03T17:00:27.616Z,102769.00
2019-01-03T17:02:58.678Z,102769.00
2019-01-03T17:05:29.785Z,102772.00
2019-01-03T17:08:00.951Z,102766.00
2019-01-03T17:10:32.194Z,102767.00
2019-01-03T17:13:03.289Z,102769.00
2019-01-03T17:15:34.493Z,102767.00
2019-01-03T17:18:08.801Z,102782.00
2019-01-03T17:20:39.927Z,102775.00
2019-01-03T17:23:10.863Z,102780.00
2019-01-03T17:25:41.975Z,102772.00
2019-01-03T17:28:12.887Z,102768.00
2019-01-03T17:30:43.813Z,102789.00
2019-01-03T17:33:14.835Z,102782.00
2019-01-03T17:35:46.013Z,102777.00
2019-01-03T17:38:17.023Z,102778.00
2019-01-03T17:40:48.092Z,102763.00
2019-01-03T17:43:19.219Z,102776.00
2019-01-03T17:45:50.458Z,102773.00
2019-01-03T17:48:21.446Z,102774.00
2019-01-03T17:50:52.734Z,102770.00
2019-01-03T17:53:24.522Z,102767.00
2019-01-03T17:55:55.609Z,102776.00
2019-01-03T17:58:28.908Z,102774.00
2019-01-03T18:01:06.257Z,102778.00
2019-01-03T18:03:39.066Z,102778.00
2019-01-03T18:06:10.187Z,102786.00
2019-01-03T18:08:41.339Z,102781.00
2019-01-03T18:11:14.728Z,102779.00
2019-01-03T18:13:45.708Z,102774.00
2019-01-03T18:16:20.532Z,102769.00
2019-01-03T18:18:51.616Z,102775.00
2019-01-03T18:21:22.724Z,102775.00
2019-01-03T18:23:53.748Z,102764.00
2019-01-03T18:26:24.755Z,102770.00
2019-01-03T18:28:57.788Z,102769.00
2019-01-03T18:31:28.746Z,102777.00
2019-01-03T18:33:59.825Z,102777.00
2019-01-03T18:36:30.767Z,102779.00
2019-01-03T18:39:02.034Z,102793.00
2019-01-03T18:41:35.923Z,102790.00
2019-01-03T18:44:08.686Z,102802.00
2019-01-03T18:46:42.794Z,102797.00
2019-01-03T18:49:14.179Z,102808.00
2019-01-03T18:51:45.400Z,102807.00
2019-01-03T18:54:16.357Z,102811.00
2019-01-03T18:56:47.374Z,102813.00
2019-01-03T18:59:18.483Z,102807.00
2019-01-03T19:01:52.440Z,102815.00
2019-01-03T19:04:23.587Z,102807.00
2019-01-03T19:06:54.763Z,102806.00
2019-01-03T19:09:26.799Z,102801.00
2019-01-03T19:11:57.661Z,102795.00
2019-01-03T19:14:28.686Z,102799.00
2019-01-03T19:16:59.857Z,102797.00
2019-01-03T19:19:30.943Z,102796.00
2019-01-03T19:22:01.939Z,102795.00
2019-01-03T19:24:34.058Z,102798.00
2019-01-03T19:27:05.285Z,102803.00
2019-01-03T19:29:36.270Z,102805.00
2019-01-03T19:32:07.289Z,102805.00
2019-01-03T19:34:38.356Z,102800.00
2019-01-03T19:37:09.437Z,102801.00
2019-01-03T19:39:40.577Z,102804.00
2019-01-03T19:42:11.702Z,102804.00
2019-01-03T19:44:42.800Z,102809.00
2019-01-03T19:47:13.950Z,102810.00
2019-01-03T19:49:45.859Z,102806.00
2019-01-03T19:52:17.312Z,102815.00
2019-01-03T19:54:48.762Z,102813.00
2019-01-03T19:57:22.930Z,102821.00
2019-01-03T19:59:54.194Z,102811.00
2019-01-03T20:02:25.883Z,102810.00
2019-01-03T20:04:57.019Z,102805.00
2019-01-03T20:07:28.258Z,102810.00
2019-01-03T20:09:59.489Z,102802.00
2019-01-03T20:12:30.658Z,102806.00
2019-01-03T20:15:01.813Z,102812.00
2019-01-03T20:17:34.588Z,102792.00
2019-01-03T20:20:06.403Z,102802.00
2019-01-03T20:22:38.603Z,102801.00
2019-01-03T20:25:10.811Z,102798.00
2019-01-03T20:27:41.949Z,102786.00
2019-01-03T20:30:13.213Z,102792.00
2019-01-03T20:32:47.334Z,102788.00
2019-01-03T20:35:20.232Z,102793.00
2019-01-03T20:37:53.134Z,102792.00
2019-01-03T20:40:25.466Z,102796.00
2019-01-03T20:42:59.133Z,102797.00
2019-01-03T20:45:30.663Z,102792.00
2019-01-03T20:48:01.915Z,102785.00
2019-01-03T20:50:33.447Z,102793.00
2019-01-03T20:53:07.584Z,102799.00
2019-01-03T20:55:38.883Z,102796.00
2019-01-03T20:58:10.157Z,102783.00
2019-01-03T21:00:41.649Z,102784.00
2019-01-03T21:03:12.763Z,102784.00
2019-01-03T21:05:43.996Z,102778.00
2019-01-03T21:08:15.053Z,102782.00
2019-01-03T21:10:46.308Z,102780.00
2019-01-03T21:13:20.176Z,102768.00
2019-01-03T21:15:51.277Z,102783.00
2019-01-03T21:18:22.494Z,102776.00
2019-01-03T21:20:53.569Z,102783.00
2019-01-03T21:23:24.713Z,102770.00
2019-01-03T21:25:55.932Z,102767.00
2019-01-03T21:28:28.301Z,102771.00
2019-01-03T21:30:59.481Z,102759.00
2019-01-03T21:33:31.194Z,102761.00
2019-01-03T21:36:02.448Z,102758.00
2019-01-03T21:38:33.838Z,102748.00
2019-01-03T21:41:04.967Z,102738.00
2019-01-03T21:43:36.551Z,102730.00
2019-01-03T21:46:09.859Z,102730.00
2019-01-03T21:48:41.129Z,102734.00
2019-01-03T21:51:12.527Z,102729.00
2019-01-03T21:53:43.739Z,102723.00
2019-01-03T21:56:15.058Z,102727.00
2019-01-03T21:58:46.281Z,102726.00
2019-01-03T22:01:17.473Z,102721.00
2019-01-03T22:03:48.655Z,102722.00
2019-01-03T22:06:19.809Z,102712.00
2019-01-03T22:08:50.755Z,102719.00
2019-01-03T22:11:22.630Z,102711.00
2019-01-03T22:13:54.383Z,102717.00
2019-01-03T22:16:25.505Z,102721.00
2019-01-03T22:18:56.524Z,102715.00
2019-01-03T22:21:27.717Z,102693.00
2019-01-03T22:23:59.155Z,102698.00
2019-01-03T22:26:36.550Z,102695.00
2019-01-03T22:29:07.622Z,102689.00
2019-01-03T22:31:40.088Z,102688.00
2019-01-03T22:34:11.939Z,102698.00
2019-01-03T22:36:44.249Z,102706.00
2019-01-03T22:39:15.522Z,102701.00
2019-01-03T22:41:46.931Z,102708.00
2019-01-03T22:44:17.901Z,102701.00
2019-01-03T22:46:48.901Z,102710.00
2019-01-03T22:49:20.097Z,102714.00
2019-01-03T22:51:52.242Z,102708.00
2019-01-03T22:54:23.194Z,102714.00
2019-01-03T22:56:54.384Z,102697.00
2019-01-03T22:59:25.411Z,102706.00
2019-01-03T23:01:56.629Z,102710.00
2019-01-03T23:04:27.575Z,102702.00
2019-01-03T23:06:58.681Z,102703.00
2019-01-03T23:09:29.675Z,102705.00
2019-01-03T23:12:00.749Z,102704.00
2019-01-03T23:14:31.789Z,102692.00
2019-01-03T23:17:02.778Z,102694.00
2019-01-03T23:19:33.761Z,102683.00
2019-01-03T23:22:05.189Z,102687.00
2019-01-03T23:24:37.377Z,102682.00
2019-01-03T23:27:08.436Z,102673.00
2019-01-03T23:29:39.662Z,102673.00
2019-01-03T23:32:11.182Z,102658.00
2019-01-03T23:34:42.063Z,102658.00
2019-01-03T23:37:12.998Z,102662.00
2019-01-03T23:39:44.379Z,102655.00
2019-01-03T23:42:15.377Z,102654.00
2019-01-03T23:45:15.310Z,102651.00
2019-01-03T23:47:46.732Z,102654.00
2019-01-03T23:50:21.223Z,102645.00
2019-01-03T23:52:52.283Z,102643.00
2019-01-03T23:55:25.835Z,102621.00
2019-01-03T23:57:57.299Z,102619.00
